sensor_id;sensor_type;location;lat;lon;timestamp;temperature;humidity
61912;DHT22;49973;52.084;5.412;2023-03-02T00:00:10;0.10;99.90
61912;DHT22;49973;52.084;5.412;2023-03-02T00:02:43;0.10;99.90
61912;DHT22;49973;52.084;5.412;2023-03-02T00:05:12;0.20;99.90
61912;DHT22;49973;52.084;5.412;2023-03-02T00:07:41;0.10;99.90
61912;DHT22;49973;52.084;5.412;2023-03-02T00:10:11;0.20;99.90
61912;DHT22;49973;52.084;5.412;2023-03-02T00:12:41;0.20;99.90
61912;DHT22;49973;52.084;5.412;2023-03-02T00:15:11;0.20;99.90
61912;DHT22;49973;52.084;5.412;2023-03-02T00:17:40;0.30;99.90
61912;DHT22;49973;52.084;5.412;2023-03-02T00:20:10;0.30;99.90
61912;DHT22;49973;52.084;5.412;2023-03-02T00:22:41;0.30;99.90
61912;DHT22;49973;52.084;5.412;2023-03-02T00:25:13;0.30;99.90
61912;DHT22;49973;52.084;5.412;2023-03-02T00:27:42;0.30;99.90
61912;DHT22;49973;52.084;5.412;2023-03-02T00:30:13;0.40;99.90
61912;DHT22;49973;52.084;5.412;2023-03-02T00:32:42;0.40;99.90
61912;DHT22;49973;52.084;5.412;2023-03-02T00:35:11;0.40;99.90
61912;DHT22;49973;52.084;5.412;2023-03-02T00:37:40;0.40;99.90
61912;DHT22;49973;52.084;5.412;2023-03-02T00:40:10;0.40;99.90
61912;DHT22;49973;52.084;5.412;2023-03-02T00:42:39;0.40;99.90
61912;DHT22;49973;52.084;5.412;2023-03-02T00:45:09;0.40;99.90
61912;DHT22;49973;52.084;5.412;2023-03-02T00:47:38;0.40;99.90
61912;DHT22;49973;52.084;5.412;2023-03-02T00:50:09;0.40;99.90
61912;DHT22;49973;52.084;5.412;2023-03-02T00:52:38;0.40;99.90
61912;DHT22;49973;52.084;5.412;2023-03-02T00:55:07;0.40;99.90
61912;DHT22;49973;52.084;5.412;2023-03-02T00:57:38;0.40;99.90
61912;DHT22;49973;52.084;5.412;2023-03-02T01:00:08;0.30;99.90
61912;DHT22;49973;52.084;5.412;2023-03-02T01:02:38;0.40;99.90
61912;DHT22;49973;52.084;5.412;2023-03-02T01:05:14;0.30;99.90
61912;DHT22;49973;52.084;5.412;2023-03-02T01:07:43;0.30;99.90
61912;DHT22;49973;52.084;5.412;2023-03-02T01:10:12;0.30;99.90
61912;DHT22;49973;52.084;5.412;2023-03-02T01:12:42;0.30;99.90
61912;DHT22;49973;52.084;5.412;2023-03-02T01:15:12;0.30;99.90
61912;DHT22;49973;52.084;5.412;2023-03-02T01:17:40;0.30;99.90
61912;DHT22;49973;52.084;5.412;2023-03-02T01:20:11;0.30;99.90
61912;DHT22;49973;52.084;5.412;2023-03-02T01:22:42;0.30;99.90
61912;DHT22;49973;52.084;5.412;2023-03-02T01:25:11;0.30;99.90
61912;DHT22;49973;52.084;5.412;2023-03-02T01:27:42;0.30;99.90
61912;DHT22;49973;52.084;5.412;2023-03-02T01:30:14;0.30;99.90
61912;DHT22;49973;52.084;5.412;2023-03-02T01:32:43;0.30;99.90
61912;DHT22;49973;52.084;5.412;2023-03-02T01:35:13;0.30;99.90
61912;DHT22;49973;52.084;5.412;2023-03-02T01:37:43;0.20;99.90
61912;DHT22;49973;52.084;5.412;2023-03-02T01:40:12;0.30;99.90
61912;DHT22;49973;52.084;5.412;2023-03-02T01:42:50;0.20;99.90
61912;DHT22;49973;52.084;5.412;2023-03-02T01:45:44;0.20;99.90
61912;DHT22;49973;52.084;5.412;2023-03-02T01:48:21;0.20;99.90
61912;DHT22;49973;52.084;5.412;2023-03-02T01:50:51;0.20;99.90
61912;DHT22;49973;52.084;5.412;2023-03-02T01:53:23;0.20;99.90
61912;DHT22;49973;52.084;5.412;2023-03-02T01:55:53;0.20;99.90
61912;DHT22;49973;52.084;5.412;2023-03-02T01:58:23;0.20;99.90
61912;DHT22;49973;52.084;5.412;2023-03-02T02:00:53;0.40;99.90
61912;DHT22;49973;52.084;5.412;2023-03-02T02:03:26;0.20;99.90
61912;DHT22;49973;52.084;5.412;2023-03-02T02:06:04;0.20;99.90
61912;DHT22;49973;52.084;5.412;2023-03-02T02:08:38;0.30;99.90
61912;DHT22;49973;52.084;5.412;2023-03-02T02:11:07;0.20;99.90
61912;DHT22;49973;52.084;5.412;2023-03-02T02:13:37;0.20;99.90
61912;DHT22;49973;52.084;5.412;2023-03-02T02:16:06;0.20;99.90
61912;DHT22;49973;52.084;5.412;2023-03-02T02:18:37;0.20;99.90
61912;DHT22;49973;52.084;5.412;2023-03-02T02:21:07;0.30;99.90
61912;DHT22;49973;52.084;5.412;2023-03-02T02:23:40;0.30;99.90
61912;DHT22;49973;52.084;5.412;2023-03-02T02:26:22;0.30;99.90
61912;DHT22;49973;52.084;5.412;2023-03-02T02:28:57;0.30;99.90
61912;DHT22;49973;52.084;5.412;2023-03-02T02:31:32;0.30;99.90
61912;DHT22;49973;52.084;5.412;2023-03-02T02:34:09;0.30;99.90
61912;DHT22;49973;52.084;5.412;2023-03-02T02:36:42;0.30;99.90
61912;DHT22;49973;52.084;5.412;2023-03-02T02:39:18;0.30;99.90
61912;DHT22;49973;52.084;5.412;2023-03-02T02:41:53;0.30;99.90
61912;DHT22;49973;52.084;5.412;2023-03-02T02:44:23;0.20;99.90
61912;DHT22;49973;52.084;5.412;2023-03-02T02:46:53;0.20;99.90
61912;DHT22;49973;52.084;5.412;2023-03-02T02:49:31;0.20;99.90
61912;DHT22;49973;52.084;5.412;2023-03-02T02:52:02;0.20;99.90
61912;DHT22;49973;52.084;5.412;2023-03-02T02:54:32;0.20;99.90
61912;DHT22;49973;52.084;5.412;2023-03-02T02:57:04;0.20;99.90
61912;DHT22;49973;52.084;5.412;2023-03-02T02:59:35;0.20;99.90
61912;DHT22;49973;52.084;5.412;2023-03-02T03:02:10;0.20;99.90
61912;DHT22;49973;52.084;5.412;2023-03-02T03:04:42;0.20;99.90
61912;DHT22;49973;52.084;5.412;2023-03-02T03:07:19;0.20;99.90
61912;DHT22;49973;52.084;5.412;2023-03-02T03:09:54;0.20;99.90
61912;DHT22;49973;52.084;5.412;2023-03-02T03:12:26;0.20;99.90
61912;DHT22;49973;52.084;5.412;2023-03-02T03:14:56;0.20;99.90
61912;DHT22;49973;52.084;5.412;2023-03-02T03:17:26;0.10;99.90
61912;DHT22;49973;52.084;5.412;2023-03-02T03:20:00;0.20;99.90
61912;DHT22;49973;52.084;5.412;2023-03-02T03:22:38;0.20;99.90
61912;DHT22;49973;52.084;5.412;2023-03-02T03:25:09;0.20;99.90
61912;DHT22;49973;52.084;5.412;2023-03-02T03:27:45;0.20;99.90
61912;DHT22;49973;52.084;5.412;2023-03-02T03:30:16;0.20;99.90
61912;DHT22;49973;52.084;5.412;2023-03-02T03:32:46;0.20;99.90
61912;DHT22;49973;52.084;5.412;2023-03-02T03:35:16;0.20;99.90
61912;DHT22;49973;52.084;5.412;2023-03-02T03:37:46;0.20;99.90
61912;DHT22;49973;52.084;5.412;2023-03-02T03:40:17;0.20;99.90
61912;DHT22;49973;52.084;5.412;2023-03-02T03:42:48;0.20;99.90
61912;DHT22;49973;52.084;5.412;2023-03-02T03:45:18;0.10;99.90
61912;DHT22;49973;52.084;5.412;2023-03-02T03:47:46;0.10;99.90
61912;DHT22;49973;52.084;5.412;2023-03-02T03:50:16;0.10;99.90
61912;DHT22;49973;52.084;5.412;2023-03-02T03:52:45;0.10;99.90
61912;DHT22;49973;52.084;5.412;2023-03-02T03:55:19;0.10;99.90
61912;DHT22;49973;52.084;5.412;2023-03-02T03:57:50;0.00;99.90
61912;DHT22;49973;52.084;5.412;2023-03-02T04:00:20;0.00;99.90
61912;DHT22;49973;52.084;5.412;2023-03-02T04:02:59;0.00;99.90
61912;DHT22;49973;52.084;5.412;2023-03-02T04:05:30;0.00;99.90
61912;DHT22;49973;52.084;5.412;2023-03-02T04:08:01;0.00;99.90
61912;DHT22;49973;52.084;5.412;2023-03-02T04:10:32;0.00;99.90
61912;DHT22;49973;52.084;5.412;2023-03-02T04:13:03;0.00;99.90
61912;DHT22;49973;52.084;5.412;2023-03-02T04:15:33;-0.10;99.90
61912;DHT22;49973;52.084;5.412;2023-03-02T04:18:03;-0.10;99.90
61912;DHT22;49973;52.084;5.412;2023-03-02T04:20:32;-0.10;99.90
61912;DHT22;49973;52.084;5.412;2023-03-02T04:23:02;0.00;99.90
61912;DHT22;49973;52.084;5.412;2023-03-02T04:25:31;-0.10;99.90
61912;DHT22;49973;52.084;5.412;2023-03-02T04:28:13;-0.10;99.90
61912;DHT22;49973;52.084;5.412;2023-03-02T04:30:45;-0.20;99.90
61912;DHT22;49973;52.084;5.412;2023-03-02T04:33:14;-0.20;99.90
61912;DHT22;49973;52.084;5.412;2023-03-02T04:35:44;-0.20;99.90
61912;DHT22;49973;52.084;5.412;2023-03-02T04:38:13;-0.20;99.90
61912;DHT22;49973;52.084;5.412;2023-03-02T04:40:43;-0.20;99.90
61912;DHT22;49973;52.084;5.412;2023-03-02T04:43:14;-0.10;99.90
61912;DHT22;49973;52.084;5.412;2023-03-02T04:45:43;-0.20;99.90
61912;DHT22;49973;52.084;5.412;2023-03-02T04:48:12;-0.20;99.90
61912;DHT22;49973;52.084;5.412;2023-03-02T04:50:41;-0.30;99.90
61912;DHT22;49973;52.084;5.412;2023-03-02T04:53:10;-0.30;99.90
61912;DHT22;49973;52.084;5.412;2023-03-02T04:55:39;-0.30;99.90
61912;DHT22;49973;52.084;5.412;2023-03-02T04:58:08;-0.30;99.90
61912;DHT22;49973;52.084;5.412;2023-03-02T05:00:38;-0.30;99.90
61912;DHT22;49973;52.084;5.412;2023-03-02T05:03:08;-0.40;99.90
61912;DHT22;49973;52.084;5.412;2023-03-02T05:05:37;-0.40;99.90
61912;DHT22;49973;52.084;5.412;2023-03-02T05:08:05;-0.40;99.90
61912;DHT22;49973;52.084;5.412;2023-03-02T05:10:34;-0.40;99.90
61912;DHT22;49973;52.084;5.412;2023-03-02T05:13:03;-0.50;99.90
61912;DHT22;49973;52.084;5.412;2023-03-02T05:15:34;-0.50;99.90
61912;DHT22;49973;52.084;5.412;2023-03-02T05:18:08;-0.40;99.90
61912;DHT22;49973;52.084;5.412;2023-03-02T05:20:37;-0.50;99.90
61912;DHT22;49973;52.084;5.412;2023-03-02T05:23:10;-0.50;99.90
61912;DHT22;49973;52.084;5.412;2023-03-02T05:25:39;-0.50;99.90
61912;DHT22;49973;52.084;5.412;2023-03-02T05:28:08;-0.60;99.90
61912;DHT22;49973;52.084;5.412;2023-03-02T05:30:39;-0.60;99.90
61912;DHT22;49973;52.084;5.412;2023-03-02T05:33:09;-0.60;99.90
61912;DHT22;49973;52.084;5.412;2023-03-02T05:35:38;-0.60;99.90
61912;DHT22;49973;52.084;5.412;2023-03-02T05:38:07;-0.60;99.90
61912;DHT22;49973;52.084;5.412;2023-03-02T05:40:36;-0.70;99.90
61912;DHT22;49973;52.084;5.412;2023-03-02T05:43:05;-0.60;99.90
61912;DHT22;49973;52.084;5.412;2023-03-02T05:45:36;-0.60;99.90
61912;DHT22;49973;52.084;5.412;2023-03-02T05:48:06;-0.60;99.90
61912;DHT22;49973;52.084;5.412;2023-03-02T05:50:37;-0.60;99.90
61912;DHT22;49973;52.084;5.412;2023-03-02T05:53:06;-0.60;99.90
61912;DHT22;49973;52.084;5.412;2023-03-02T05:55:36;-0.60;99.90
61912;DHT22;49973;52.084;5.412;2023-03-02T05:58:06;-0.60;99.90
61912;DHT22;49973;52.084;5.412;2023-03-02T06:00:36;-0.60;99.90
61912;DHT22;49973;52.084;5.412;2023-03-02T06:03:04;-0.70;99.90
61912;DHT22;49973;52.084;5.412;2023-03-02T06:05:35;-0.60;99.90
61912;DHT22;49973;52.084;5.412;2023-03-02T06:08:05;-0.70;99.90
61912;DHT22;49973;52.084;5.412;2023-03-02T06:10:34;-0.70;99.90
61912;DHT22;49973;52.084;5.412;2023-03-02T06:13:02;-0.70;99.90
61912;DHT22;49973;52.084;5.412;2023-03-02T06:15:31;-0.60;99.90
61912;DHT22;49973;52.084;5.412;2023-03-02T06:18:00;-0.60;99.90
61912;DHT22;49973;52.084;5.412;2023-03-02T06:20:29;-0.60;99.90
61912;DHT22;49973;52.084;5.412;2023-03-02T06:22:59;-0.60;99.90
61912;DHT22;49973;52.084;5.412;2023-03-02T06:25:28;-0.70;99.90
61912;DHT22;49973;52.084;5.412;2023-03-02T06:27:57;-0.70;99.90
61912;DHT22;49973;52.084;5.412;2023-03-02T06:30:26;-0.70;99.90
61912;DHT22;49973;52.084;5.412;2023-03-02T06:32:55;-0.70;99.90
61912;DHT22;49973;52.084;5.412;2023-03-02T06:35:24;-0.70;99.90
61912;DHT22;49973;52.084;5.412;2023-03-02T06:37:53;-0.70;99.90
61912;DHT22;49973;52.084;5.412;2023-03-02T06:40:23;-0.70;99.90
61912;DHT22;49973;52.084;5.412;2023-03-02T06:42:52;-0.70;99.90
61912;DHT22;49973;52.084;5.412;2023-03-02T06:45:20;-0.70;99.90
61912;DHT22;49973;52.084;5.412;2023-03-02T06:47:49;-0.70;99.90
61912;DHT22;49973;52.084;5.412;2023-03-02T06:50:19;-0.60;99.90
61912;DHT22;49973;52.084;5.412;2023-03-02T06:52:47;-0.60;99.90
61912;DHT22;49973;52.084;5.412;2023-03-02T06:55:16;-0.60;99.90
61912;DHT22;49973;52.084;5.412;2023-03-02T06:57:46;-0.60;99.90
61912;DHT22;49973;52.084;5.412;2023-03-02T07:00:16;-0.60;99.90
61912;DHT22;49973;52.084;5.412;2023-03-02T07:02:53;-0.60;99.90
61912;DHT22;49973;52.084;5.412;2023-03-02T07:05:23;-0.60;99.90
61912;DHT22;49973;52.084;5.412;2023-03-02T07:07:52;-0.50;99.90
61912;DHT22;49973;52.084;5.412;2023-03-02T07:10:21;-0.50;99.90
61912;DHT22;49973;52.084;5.412;2023-03-02T07:12:51;-0.50;99.90
61912;DHT22;49973;52.084;5.412;2023-03-02T07:15:20;-0.40;99.90
61912;DHT22;49973;52.084;5.412;2023-03-02T07:17:49;-0.40;99.90
61912;DHT22;49973;52.084;5.412;2023-03-02T07:20:18;-0.30;99.90
61912;DHT22;49973;52.084;5.412;2023-03-02T07:22:47;-0.20;99.90
61912;DHT22;49973;52.084;5.412;2023-03-02T07:25:16;-0.10;99.90
61912;DHT22;49973;52.084;5.412;2023-03-02T07:27:45;0.00;99.90
61912;DHT22;49973;52.084;5.412;2023-03-02T07:30:16;0.30;99.90
61912;DHT22;49973;52.084;5.412;2023-03-02T07:32:47;0.60;99.90
61912;DHT22;49973;52.084;5.412;2023-03-02T07:35:16;0.80;99.90
61912;DHT22;49973;52.084;5.412;2023-03-02T07:37:45;1.10;99.90
61912;DHT22;49973;52.084;5.412;2023-03-02T07:40:14;1.30;99.90
61912;DHT22;49973;52.084;5.412;2023-03-02T07:42:43;1.60;99.90
61912;DHT22;49973;52.084;5.412;2023-03-02T07:45:13;1.80;99.90
61912;DHT22;49973;52.084;5.412;2023-03-02T07:47:44;1.90;99.90
61912;DHT22;49973;52.084;5.412;2023-03-02T07:50:13;2.10;99.90
61912;DHT22;49973;52.084;5.412;2023-03-02T07:52:42;2.30;99.90
61912;DHT22;49973;52.084;5.412;2023-03-02T07:55:10;2.50;99.90
61912;DHT22;49973;52.084;5.412;2023-03-02T07:57:39;2.80;99.90
61912;DHT22;49973;52.084;5.412;2023-03-02T08:00:09;2.90;99.90
61912;DHT22;49973;52.084;5.412;2023-03-02T08:02:38;3.20;99.90
61912;DHT22;49973;52.084;5.412;2023-03-02T08:05:10;3.40;99.90
61912;DHT22;49973;52.084;5.412;2023-03-02T08:07:39;3.80;99.90
61912;DHT22;49973;52.084;5.412;2023-03-02T08:10:10;4.00;99.90
61912;DHT22;49973;52.084;5.412;2023-03-02T08:12:38;4.30;99.90
61912;DHT22;49973;52.084;5.412;2023-03-02T08:15:10;4.60;99.90
61912;DHT22;49973;52.084;5.412;2023-03-02T08:17:38;4.90;99.90
61912;DHT22;49973;52.084;5.412;2023-03-02T08:20:10;5.00;99.90
61912;DHT22;49973;52.084;5.412;2023-03-02T08:22:39;4.90;99.90
61912;DHT22;49973;52.084;5.412;2023-03-02T08:25:07;4.70;99.90
61912;DHT22;49973;52.084;5.412;2023-03-02T08:27:36;4.50;99.90
61912;DHT22;49973;52.084;5.412;2023-03-02T08:30:07;4.10;99.90
61912;DHT22;49973;52.084;5.412;2023-03-02T08:32:37;3.80;99.90
61912;DHT22;49973;52.084;5.412;2023-03-02T08:35:06;3.50;99.90
61912;DHT22;49973;52.084;5.412;2023-03-02T08:37:37;3.30;99.90
61912;DHT22;49973;52.084;5.412;2023-03-02T08:40:07;3.10;99.90
61912;DHT22;49973;52.084;5.412;2023-03-02T08:42:36;2.90;99.90
61912;DHT22;49973;52.084;5.412;2023-03-02T08:45:05;2.80;99.90
61912;DHT22;49973;52.084;5.412;2023-03-02T08:47:34;2.60;99.90
61912;DHT22;49973;52.084;5.412;2023-03-02T08:50:04;2.50;99.90
61912;DHT22;49973;52.084;5.412;2023-03-02T08:52:33;2.40;99.90
61912;DHT22;49973;52.084;5.412;2023-03-02T08:55:04;2.40;99.90
61912;DHT22;49973;52.084;5.412;2023-03-02T08:57:33;2.30;99.90
61912;DHT22;49973;52.084;5.412;2023-03-02T09:00:02;2.40;99.90
61912;DHT22;49973;52.084;5.412;2023-03-02T09:02:34;2.30;99.90
61912;DHT22;49973;52.084;5.412;2023-03-02T09:05:03;2.30;99.90
61912;DHT22;49973;52.084;5.412;2023-03-02T09:07:32;2.30;99.90
61912;DHT22;49973;52.084;5.412;2023-03-02T09:10:02;2.30;99.90
61912;DHT22;49973;52.084;5.412;2023-03-02T09:12:31;2.40;99.90
61912;DHT22;49973;52.084;5.412;2023-03-02T09:15:00;2.50;99.90
61912;DHT22;49973;52.084;5.412;2023-03-02T09:17:28;2.50;99.90
61912;DHT22;49973;52.084;5.412;2023-03-02T09:19:57;2.60;99.90
61912;DHT22;49973;52.084;5.412;2023-03-02T09:22:26;2.70;99.90
61912;DHT22;49973;52.084;5.412;2023-03-02T09:24:56;2.70;99.90
61912;DHT22;49973;52.084;5.412;2023-03-02T09:27:26;2.90;99.90
61912;DHT22;49973;52.084;5.412;2023-03-02T09:29:55;2.90;99.90
61912;DHT22;49973;52.084;5.412;2023-03-02T09:32:24;2.90;99.90
61912;DHT22;49973;52.084;5.412;2023-03-02T09:34:53;2.90;99.90
61912;DHT22;49973;52.084;5.412;2023-03-02T09:37:21;3.00;99.90
61912;DHT22;49973;52.084;5.412;2023-03-02T09:39:50;3.00;99.90
61912;DHT22;49973;52.084;5.412;2023-03-02T09:45:41;3.10;99.90
61912;DHT22;49973;52.084;5.412;2023-03-02T09:48:18;3.20;99.90
61912;DHT22;49973;52.084;5.412;2023-03-02T09:50:58;3.20;99.90
61912;DHT22;49973;52.084;5.412;2023-03-02T09:53:40;3.30;99.90
61912;DHT22;49973;52.084;5.412;2023-03-02T09:56:14;3.40;99.90
61912;DHT22;49973;52.084;5.412;2023-03-02T09:58:51;3.40;99.90
61912;DHT22;49973;52.084;5.412;2023-03-02T10:01:31;3.50;99.90
61912;DHT22;49973;52.084;5.412;2023-03-02T10:04:10;3.60;99.90
61912;DHT22;49973;52.084;5.412;2023-03-02T10:06:39;3.70;99.90
61912;DHT22;49973;52.084;5.412;2023-03-02T10:09:09;3.70;99.90
61912;DHT22;49973;52.084;5.412;2023-03-02T10:11:48;3.80;99.90
61912;DHT22;49973;52.084;5.412;2023-03-02T10:14:24;3.90;99.90
61912;DHT22;49973;52.084;5.412;2023-03-02T10:17:06;4.00;99.90
61912;DHT22;49973;52.084;5.412;2023-03-02T10:19:42;4.10;99.90
61912;DHT22;49973;52.084;5.412;2023-03-02T10:22:15;4.20;99.90
61912;DHT22;49973;52.084;5.412;2023-03-02T10:24:49;4.30;99.90
61912;DHT22;49973;52.084;5.412;2023-03-02T10:27:24;4.40;99.90
61912;DHT22;49973;52.084;5.412;2023-03-02T10:29:57;4.50;99.90
61912;DHT22;49973;52.084;5.412;2023-03-02T10:32:31;4.60;99.90
61912;DHT22;49973;52.084;5.412;2023-03-02T10:35:04;4.70;99.90
61912;DHT22;49973;52.084;5.412;2023-03-02T10:37:38;4.80;99.90
61912;DHT22;49973;52.084;5.412;2023-03-02T10:40:12;4.90;99.90
61912;DHT22;49973;52.084;5.412;2023-03-02T10:42:50;5.00;99.90
61912;DHT22;49973;52.084;5.412;2023-03-02T10:45:23;5.10;99.90
61912;DHT22;49973;52.084;5.412;2023-03-02T10:48:04;5.20;99.90
61912;DHT22;49973;52.084;5.412;2023-03-02T10:50:34;5.30;99.90
61912;DHT22;49973;52.084;5.412;2023-03-02T10:53:05;5.30;99.90
61912;DHT22;49973;52.084;5.412;2023-03-02T10:55:34;5.40;99.90
61912;DHT22;49973;52.084;5.412;2023-03-02T10:58:23;5.40;99.90
61912;DHT22;49973;52.084;5.412;2023-03-02T11:00:58;5.50;99.90
61912;DHT22;49973;52.084;5.412;2023-03-02T11:03:29;5.70;99.90
61912;DHT22;49973;52.084;5.412;2023-03-02T11:06:10;5.80;99.90
61912;DHT22;49973;52.084;5.412;2023-03-02T11:08:39;5.80;99.90
61912;DHT22;49973;52.084;5.412;2023-03-02T11:11:20;5.80;99.90
61912;DHT22;49973;52.084;5.412;2023-03-02T11:13:50;6.10;99.90
61912;DHT22;49973;52.084;5.412;2023-03-02T11:16:24;6.00;99.90
61912;DHT22;49973;52.084;5.412;2023-03-02T11:18:58;6.00;99.90
61912;DHT22;49973;52.084;5.412;2023-03-02T11:21:31;6.10;99.90
61912;DHT22;49973;52.084;5.412;2023-03-02T11:24:08;6.10;99.90
61912;DHT22;49973;52.084;5.412;2023-03-02T11:26:41;6.20;99.90
61912;DHT22;49973;52.084;5.412;2023-03-02T11:29:21;6.20;99.90
61912;DHT22;49973;52.084;5.412;2023-03-02T11:31:53;6.40;99.90
61912;DHT22;49973;52.084;5.412;2023-03-02T11:34:30;6.40;99.90
61912;DHT22;49973;52.084;5.412;2023-03-02T11:37:11;6.50;99.90
61912;DHT22;49973;52.084;5.412;2023-03-02T11:39:59;6.60;99.90
61912;DHT22;49973;52.084;5.412;2023-03-02T11:42:30;6.70;99.90
61912;DHT22;49973;52.084;5.412;2023-03-02T11:45:02;6.80;99.90
61912;DHT22;49973;52.084;5.412;2023-03-02T11:47:34;6.90;99.90
61912;DHT22;49973;52.084;5.412;2023-03-02T11:50:10;6.90;99.90
61912;DHT22;49973;52.084;5.412;2023-03-02T11:52:43;7.00;99.90
61912;DHT22;49973;52.084;5.412;2023-03-02T11:55:17;7.20;99.90
61912;DHT22;49973;52.084;5.412;2023-03-02T11:57:47;7.20;99.90
61912;DHT22;49973;52.084;5.412;2023-03-02T12:00:26;7.20;99.90
61912;DHT22;49973;52.084;5.412;2023-03-02T12:03:04;7.30;99.90
61912;DHT22;49973;52.084;5.412;2023-03-02T12:05:36;7.30;99.90
61912;DHT22;49973;52.084;5.412;2023-03-02T12:08:29;7.50;99.90
61912;DHT22;49973;52.084;5.412;2023-03-02T12:10:58;7.50;99.90
61912;DHT22;49973;52.084;5.412;2023-03-02T12:13:29;7.60;99.90
61912;DHT22;49973;52.084;5.412;2023-03-02T12:15:58;7.60;99.90
61912;DHT22;49973;52.084;5.412;2023-03-02T12:21:23;7.70;99.90
61912;DHT22;49973;52.084;5.412;2023-03-02T12:23:57;7.90;99.90
61912;DHT22;49973;52.084;5.412;2023-03-02T12:26:31;7.90;99.90
61912;DHT22;49973;52.084;5.412;2023-03-02T12:29:05;7.90;99.90
61912;DHT22;49973;52.084;5.412;2023-03-02T12:31:43;8.00;99.90
61912;DHT22;49973;52.084;5.412;2023-03-02T12:34:35;8.00;99.90
61912;DHT22;49973;52.084;5.412;2023-03-02T12:37:14;8.00;99.90
61912;DHT22;49973;52.084;5.412;2023-03-02T12:43:19;8.10;99.90
61912;DHT22;49973;52.084;5.412;2023-03-02T12:46:10;8.10;99.90
61912;DHT22;49973;52.084;5.412;2023-03-02T12:48:46;8.20;99.90
61912;DHT22;49973;52.084;5.412;2023-03-02T12:51:20;8.20;99.90
61912;DHT22;49973;52.084;5.412;2023-03-02T12:54:00;8.20;99.90
61912;DHT22;49973;52.084;5.412;2023-03-02T12:56:29;8.30;99.90
61912;DHT22;49973;52.084;5.412;2023-03-02T12:58:58;8.30;99.90
61912;DHT22;49973;52.084;5.412;2023-03-02T13:01:29;8.30;99.90
61912;DHT22;49973;52.084;5.412;2023-03-02T13:03:58;8.40;99.90
61912;DHT22;49973;52.084;5.412;2023-03-02T13:06:30;8.40;99.90
61912;DHT22;49973;52.084;5.412;2023-03-02T13:09:01;8.40;99.90
61912;DHT22;49973;52.084;5.412;2023-03-02T13:11:32;8.50;99.90
61912;DHT22;49973;52.084;5.412;2023-03-02T13:14:17;8.50;99.90
61912;DHT22;49973;52.084;5.412;2023-03-02T13:16:54;8.60;99.90
61912;DHT22;49973;52.084;5.412;2023-03-02T13:19:24;8.50;99.90
61912;DHT22;49973;52.084;5.412;2023-03-02T13:21:53;8.60;99.90
61912;DHT22;49973;52.084;5.412;2023-03-02T13:24:31;8.60;99.90
61912;DHT22;49973;52.084;5.412;2023-03-02T13:27:04;8.70;99.90
61912;DHT22;49973;52.084;5.412;2023-03-02T13:29:34;8.70;99.90
61912;DHT22;49973;52.084;5.412;2023-03-02T13:32:17;8.70;99.90
61912;DHT22;49973;52.084;5.412;2023-03-02T13:34:48;8.70;99.90
61912;DHT22;49973;52.084;5.412;2023-03-02T13:37:27;8.70;99.90
61912;DHT22;49973;52.084;5.412;2023-03-02T13:40:00;8.70;99.90
61912;DHT22;49973;52.084;5.412;2023-03-02T13:42:34;8.80;99.90
61912;DHT22;49973;52.084;5.412;2023-03-02T13:45:23;8.90;99.90
61912;DHT22;49973;52.084;5.412;2023-03-02T13:47:53;8.90;99.90
61912;DHT22;49973;52.084;5.412;2023-03-02T13:50:24;8.90;99.90
61912;DHT22;49973;52.084;5.412;2023-03-02T13:52:55;8.90;99.90
61912;DHT22;49973;52.084;5.412;2023-03-02T13:55:26;8.90;99.90
61912;DHT22;49973;52.084;5.412;2023-03-02T13:57:55;8.90;99.90
61912;DHT22;49973;52.084;5.412;2023-03-02T14:00:27;8.90;99.90
61912;DHT22;49973;52.084;5.412;2023-03-02T14:02:57;9.00;99.90
61912;DHT22;49973;52.084;5.412;2023-03-02T14:05:27;9.00;99.90
61912;DHT22;49973;52.084;5.412;2023-03-02T14:08:00;9.00;99.90
61912;DHT22;49973;52.084;5.412;2023-03-02T14:10:31;9.10;99.90
61912;DHT22;49973;52.084;5.412;2023-03-02T14:13:02;9.10;99.90
61912;DHT22;49973;52.084;5.412;2023-03-02T14:15:33;9.10;99.90
61912;DHT22;49973;52.084;5.412;2023-03-02T14:18:10;9.00;99.90
61912;DHT22;49973;52.084;5.412;2023-03-02T14:20:41;9.00;99.90
61912;DHT22;49973;52.084;5.412;2023-03-02T14:23:09;9.00;99.90
61912;DHT22;49973;52.084;5.412;2023-03-02T14:25:39;9.00;99.90
61912;DHT22;49973;52.084;5.412;2023-03-02T14:28:09;9.00;99.90
61912;DHT22;49973;52.084;5.412;2023-03-02T14:30:39;9.00;99.90
61912;DHT22;49973;52.084;5.412;2023-03-02T14:33:15;9.00;99.90
61912;DHT22;49973;52.084;5.412;2023-03-02T14:35:44;8.90;99.90
61912;DHT22;49973;52.084;5.412;2023-03-02T14:38:13;8.90;99.90
61912;DHT22;49973;52.084;5.412;2023-03-02T14:40:43;8.90;99.90
61912;DHT22;49973;52.084;5.412;2023-03-02T14:43:12;8.90;99.90
61912;DHT22;49973;52.084;5.412;2023-03-02T14:45:40;8.80;99.90
61912;DHT22;49973;52.084;5.412;2023-03-02T14:48:09;8.80;99.90
61912;DHT22;49973;52.084;5.412;2023-03-02T14:50:40;8.80;99.90
61912;DHT22;49973;52.084;5.412;2023-03-02T14:53:15;8.80;99.90
61912;DHT22;49973;52.084;5.412;2023-03-02T14:55:46;8.80;99.90
61912;DHT22;49973;52.084;5.412;2023-03-02T14:58:17;8.80;99.90
61912;DHT22;49973;52.084;5.412;2023-03-02T15:00:46;8.90;99.90
61912;DHT22;49973;52.084;5.412;2023-03-02T15:03:17;8.80;99.90
61912;DHT22;49973;52.084;5.412;2023-03-02T15:05:49;8.90;99.90
61912;DHT22;49973;52.084;5.412;2023-03-02T15:08:28;8.70;99.90
61912;DHT22;49973;52.084;5.412;2023-03-02T15:10:59;8.70;99.90
61912;DHT22;49973;52.084;5.412;2023-03-02T15:13:27;8.70;99.90
61912;DHT22;49973;52.084;5.412;2023-03-02T15:15:56;8.60;99.90
61912;DHT22;49973;52.084;5.412;2023-03-02T15:18:25;8.60;99.90
61912;DHT22;49973;52.084;5.412;2023-03-02T15:20:54;8.60;99.90
61912;DHT22;49973;52.084;5.412;2023-03-02T15:23:22;8.60;99.90
61912;DHT22;49973;52.084;5.412;2023-03-02T15:25:51;8.60;99.90
61912;DHT22;49973;52.084;5.412;2023-03-02T15:28:21;8.60;99.90
61912;DHT22;49973;52.084;5.412;2023-03-02T15:30:50;8.60;99.90
61912;DHT22;49973;52.084;5.412;2023-03-02T15:33:18;8.60;99.90
61912;DHT22;49973;52.084;5.412;2023-03-02T15:35:50;8.60;99.90
61912;DHT22;49973;52.084;5.412;2023-03-02T15:38:21;8.60;99.90
61912;DHT22;49973;52.084;5.412;2023-03-02T15:40:51;8.60;99.90
61912;DHT22;49973;52.084;5.412;2023-03-02T15:43:21;8.60;99.90
61912;DHT22;49973;52.084;5.412;2023-03-02T15:45:50;8.60;99.90
61912;DHT22;49973;52.084;5.412;2023-03-02T15:48:19;8.40;99.90
61912;DHT22;49973;52.084;5.412;2023-03-02T15:50:55;8.60;99.90
61912;DHT22;49973;52.084;5.412;2023-03-02T15:53:24;8.50;99.90
61912;DHT22;49973;52.084;5.412;2023-03-02T15:55:52;8.40;99.90
61912;DHT22;49973;52.084;5.412;2023-03-02T15:58:22;8.30;99.90
61912;DHT22;49973;52.084;5.412;2023-03-02T16:00:51;8.30;99.90
61912;DHT22;49973;52.084;5.412;2023-03-02T16:03:22;8.30;99.90
61912;DHT22;49973;52.084;5.412;2023-03-02T16:05:51;8.20;99.90
61912;DHT22;49973;52.084;5.412;2023-03-02T16:08:19;8.20;99.90
61912;DHT22;49973;52.084;5.412;2023-03-02T16:10:55;8.10;99.90
61912;DHT22;49973;52.084;5.412;2023-03-02T16:13:25;8.10;99.90
61912;DHT22;49973;52.084;5.412;2023-03-02T16:15:54;8.10;99.90
61912;DHT22;49973;52.084;5.412;2023-03-02T16:18:22;8.10;99.90